Time;durP1;ratioP1;P1;durP2;ratioP2;P2;SDS_P1;SDS_P2;PMS_P1;PMS_P2;Temp;Humidity;BMP_temperature;BMP_pressure;BME280_temperature;BME280_humidity;BME280_pressure;Samples;Min_cycle;Max_cycle;Signal;HPM_P1;HPM_P2
2022/02/07 00:02:03;;;;;;;1.33;0.80;;;18.20;57.40;;;;;;5045514;28;20181;-80
2022/02/07 00:04:34;;;;;;;1.00;0.65;;;18.20;58.20;;;;;;5039450;28;20228;-81
2022/02/07 00:07:02;;;;;;;2.28;0.75;;;18.20;57.40;;;;;;5056630;28;20197;-81
2022/02/07 00:09:29;;;;;;;1.65;0.77;;;18.10;57.50;;;;;;5038670;28;20217;-81
2022/02/07 00:11:55;;;;;;;0.88;0.60;;;18.20;57.50;;;;;;5056510;28;20196;-80
2022/02/07 00:14:22;;;;;;;1.30;0.57;;;18.20;57.40;;;;;;5073208;28;20572;-81
2022/02/07 00:16:48;;;;;;;0.82;0.60;;;18.20;57.10;;;;;;5073258;28;20185;-81
2022/02/07 00:19:22;;;;;;;3.22;0.90;;;18.20;57.40;;;;;;5039671;28;20643;-81
2022/02/07 00:21:49;;;;;;;2.85;0.90;;;18.10;57.10;;;;;;5041197;28;20176;-81
2022/02/07 00:24:15;;;;;;;1.55;0.70;;;18.10;57.50;;;;;;5039689;28;20173;-80
2022/02/07 00:26:41;;;;;;;0.77;0.60;;;18.20;57.50;;;;;;5039574;28;20193;-81
2022/02/07 00:29:07;;;;;;;2.15;0.70;;;18.10;57.70;;;;;;5039728;28;20172;-81
2022/02/07 00:31:34;;;;;;;1.00;0.50;;;18.10;57.20;;;;;;5039346;28;20173;-81
2022/02/07 00:34:00;;;;;;;0.95;0.52;;;18.20;56.70;;;;;;5056239;28;20675;-81
2022/02/07 00:36:27;;;;;;;0.93;0.60;;;18.20;56.90;;;;;;5056198;28;20171;-81
2022/02/07 00:39:00;;;;;;;1.95;0.52;;;18.20;57.10;;;;;;5054629;28;20207;-80
2022/02/07 00:41:37;;;;;;;1.23;0.70;;;18.20;56.70;;;;;;5040036;28;20256;-80
2022/02/07 00:44:12;;;;;;;2.58;0.70;;;18.20;56.80;;;;;;5040111;28;20177;-81
2022/02/07 00:46:46;;;;;;;0.95;0.70;;;18.20;57.20;;;;;;5039056;28;20713;-81
2022/02/07 00:49:14;;;;;;;1.38;0.70;;;18.20;57.30;;;;;;5055977;28;20164;-81
2022/02/07 00:51:40;;;;;;;1.50;0.60;;;18.10;57.10;;;;;;5054365;28;20688;-81
2022/02/07 00:54:08;;;;;;;1.48;0.82;;;18.20;57.20;;;;;;5038204;28;20181;-81
2022/02/07 00:56:35;;;;;;;1.33;0.70;;;18.10;57.20;;;;;;5037770;28;20276;-81
2022/02/07 00:59:04;;;;;;;1.15;0.60;;;18.20;57.00;;;;;;5038507;28;20177;-81
2022/02/07 01:01:30;;;;;;;1.13;0.70;;;18.20;57.00;;;;;;5054589;28;20181;-81
2022/02/07 01:03:58;;;;;;;0.77;0.52;;;18.20;57.50;;;;;;5055483;28;20264;-81
2022/02/07 01:06:26;;;;;;;1.83;0.75;;;18.10;57.50;;;;;;5037762;28;20213;-80
2022/02/07 01:09:08;;;;;;;1.30;0.70;;;18.10;57.10;;;;;;5038049;28;20201;-81
2022/02/07 01:52:20;;;;;;;1.40;0.52;;;18.10;57.20;;;;;;5047635;28;20181;-81
2022/02/07 01:55:02;;;;;;;2.17;0.68;;;18.00;57.30;;;;;;5060276;28;20254;-80
2022/02/07 01:57:30;;;;;;;1.55;0.77;;;18.10;57.20;;;;;;5044049;28;20191;-80
2022/02/07 01:59:58;;;;;;;0.80;0.77;;;18.00;57.10;;;;;;5041481;28;20212;-81
2022/02/07 02:02:25;;;;;;;1.50;0.63;;;18.10;57.40;;;;;;5041173;28;20204;-81
2022/02/07 02:04:53;;;;;;;0.93;0.60;;;18.00;57.40;;;;;;5041562;28;20209;-80
2022/02/07 02:07:20;;;;;;;1.48;0.70;;;18.00;57.20;;;;;;5041138;28;20220;-81
2022/02/07 02:09:48;;;;;;;0.93;0.70;;;18.10;57.00;;;;;;5024488;28;20227;-80
2022/02/07 02:12:15;;;;;;;1.20;0.68;;;18.00;57.00;;;;;;5023954;28;20184;-80
2022/02/07 02:17:54;;;;;;;1.52;0.55;;;18.10;56.70;;;;;;5075362;28;20153;-81
2022/02/07 02:20:50;;;;;;;1.63;0.90;;;18.10;57.00;;;;;;5046972;28;20185;-81
2022/02/07 02:32:38;;;;;;;1.02;0.63;;;18.00;57.10;;;;;;5046927;28;20644;-81
2022/02/07 02:34:12;;;;;;;1.05;0.63;;;18.00;57.70;;;;;;5059504;28;20186;-81
2022/02/07 02:47:19;;;;;;;0.82;0.60;;;18.00;56.70;;;;;;5058902;28;20212;-81
2022/02/07 02:49:49;;;;;;;0.82;0.50;;;18.00;56.90;;;;;;5041255;28;20547;-81
2022/02/07 02:52:16;;;;;;;1.30;0.82;;;18.00;56.90;;;;;;5058066;28;20169;-81
2022/02/07 02:54:43;;;;;;;0.68;0.65;;;18.00;57.00;;;;;;5024229;28;20188;-81
2022/02/07 02:57:10;;;;;;;1.25;0.75;;;18.00;56.90;;;;;;5040287;28;20226;-82
2022/02/07 02:59:37;;;;;;;2.05;0.60;;;18.00;57.10;;;;;;5023769;28;20181;-81
2022/02/07 03:02:04;;;;;;;1.58;0.60;;;18.00;56.90;;;;;;5038711;28;20644;-81
2022/02/07 03:04:31;;;;;;;1.13;0.50;;;18.00;56.80;;;;;;5023313;28;20630;-81
2022/02/07 03:06:58;;;;;;;0.80;0.52;;;17.90;56.70;;;;;;5039803;28;20296;-81
2022/02/07 03:09:24;;;;;;;2.05;0.88;;;18.00;57.10;;;;;;5022986;28;20216;-81
2022/02/07 03:11:52;;;;;;;1.33;0.70;;;18.00;56.80;;;;;;5057701;28;20180;-81
2022/02/07 03:14:22;;;;;;;1.00;0.70;;;18.00;57.20;;;;;;5074570;28;20264;-81
2022/02/07 03:16:50;;;;;;;1.25;0.60;;;18.00;57.20;;;;;;5074356;28;20184;-81
2022/02/07 03:19:17;;;;;;;1.38;0.70;;;18.00;57.10;;;;;;5041563;28;20623;-81
2022/02/07 03:21:44;;;;;;;0.68;0.43;;;18.00;56.80;;;;;;5074485;28;20166;-80
2022/02/07 03:24:10;;;;;;;1.05;0.80;;;17.90;57.10;;;;;;5040978;28;20204;-81
2022/02/07 03:26:40;;;;;;;1.13;0.85;;;17.90;57.10;;;;;;5074481;28;20567;-81
2022/02/07 03:29:06;;;;;;;1.52;0.85;;;17.90;56.80;;;;;;5074422;28;20244;-81
2022/02/07 03:31:32;;;;;;;1.63;0.52;;;18.00;56.90;;;;;;5074156;28;20223;-80
2022/02/07 03:33:58;;;;;;;0.93;0.60;;;18.00;57.70;;;;;;5074286;28;20553;-80
2022/02/07 03:36:29;;;;;;;1.15;0.45;;;17.90;57.00;;;;;;5074910;28;20267;-80
2022/02/07 03:38:55;;;;;;;1.20;0.60;;;17.90;57.20;;;;;;5073452;28;20172;-81
2022/02/07 03:41:23;;;;;;;0.90;0.73;;;17.90;57.60;;;;;;5040762;28;20208;-80
2022/02/07 03:43:50;;;;;;;1.25;0.73;;;17.90;57.30;;;;;;5056032;28;20297;-80
2022/02/07 03:46:17;;;;;;;1.00;0.50;;;17.90;57.10;;;;;;5022763;28;20560;-80
2022/02/07 03:48:44;;;;;;;0.90;0.70;;;18.00;57.00;;;;;;5039122;28;20177;-81
2022/02/07 03:51:12;;;;;;;0.60;0.40;;;17.90;57.20;;;;;;5022920;28;20539;-81
2022/02/07 03:53:39;;;;;;;1.58;0.68;;;17.90;57.40;;;;;;5039443;28;20189;-81
2022/02/07 03:56:07;;;;;;;1.05;0.63;;;17.80;56.90;;;;;;5038962;28;20185;-80
2022/02/07 03:58:34;;;;;;;1.17;0.50;;;17.90;56.90;;;;;;5022565;28;20631;-81
2022/02/07 04:01:01;;;;;;;1.00;0.70;;;17.80;56.90;;;;;;5038874;28;20177;-81
2022/02/07 04:03:31;;;;;;;1.63;0.50;;;17.90;57.70;;;;;;5038983;28;20192;-81
2022/02/07 04:06:02;;;;;;;0.95;0.50;;;17.80;57.10;;;;;;5039281;28;20208;-81
2022/02/07 04:08:33;;;;;;;1.80;0.60;;;17.90;56.90;;;;;;5039617;28;20240;-81
2022/02/07 04:11:07;;;;;;;1.48;0.57;;;17.90;57.10;;;;;;5073028;28;20236;-80
2022/02/07 04:13:35;;;;;;;0.77;0.63;;;17.90;57.10;;;;;;5073893;28;20158;-81
2022/02/07 04:16:02;;;;;;;0.63;0.50;;;17.80;56.90;;;;;;5073023;28;20169;-81
2022/02/07 04:18:33;;;;;;;2.67;0.75;;;17.90;57.10;;;;;;5072680;28;20172;-80
2022/02/07 04:21:01;;;;;;;1.35;0.57;;;17.80;57.40;;;;;;5040353;28;20506;-80
2022/02/07 04:23:27;;;;;;;2.38;0.75;;;17.80;56.90;;;;;;5040123;28;20678;-82
2022/02/07 04:25:53;;;;;;;1.30;0.73;;;17.90;56.70;;;;;;5040115;28;20254;-81
2022/02/07 04:28:20;;;;;;;1.48;0.77;;;17.90;57.00;;;;;;5072612;28;20173;-81
2022/02/07 04:30:46;;;;;;;1.58;0.80;;;17.90;57.20;;;;;;5073180;28;20197;-81
2022/02/07 04:33:12;;;;;;;1.25;0.50;;;17.90;57.60;;;;;;5072545;28;20620;-80
2022/02/07 04:35:38;;;;;;;0.98;0.57;;;17.80;57.20;;;;;;5039664;28;20200;-81
2022/02/07 04:38:04;;;;;;;0.80;0.55;;;17.90;57.10;;;;;;5073114;28;20205;-82
2022/02/07 04:40:30;;;;;;;0.80;0.55;;;17.90;57.10;;;;;;5072538;28;20170;-80
2022/02/07 04:42:58;;;;;;;1.65;0.60;;;17.80;57.30;;;;;;5072839;28;20166;-82
2022/02/07 04:45:40;;;;;;;1.38;0.88;;;17.90;57.00;;;;;;5072991;28;20273;-81
2022/02/07 04:59:03;;;;;;;0.40;0.40;;;17.90;57.10;;;;;;5057855;28;20171;-81
2022/02/07 05:01:35;;;;;;;1.20;0.52;;;17.90;56.90;;;;;;5025774;28;20185;-81
2022/02/07 05:04:09;;;;;;;1.80;0.68;;;17.80;57.20;;;;;;5038875;28;20181;-82
2022/02/07 05:14:41;;;;;;;0.70;0.55;;;17.90;57.00;;;;;;5041997;28;20180;-82
2022/02/07 05:17:09;;;;;;;0.60;0.40;;;17.90;56.90;;;;;;5055577;28;20266;-81
2022/02/07 05:19:36;;;;;;;1.30;0.65;;;17.90;56.90;;;;;;5038850;28;20177;-81
2022/02/07 05:22:04;;;;;;;1.27;0.70;;;17.80;57.20;;;;;;5037568;28;20185;-81
2022/02/07 05:24:30;;;;;;;0.40;0.40;;;17.80;57.30;;;;;;5036609;28;20639;-81
2022/02/07 05:26:56;;;;;;;0.80;0.60;;;17.80;57.00;;;;;;5021006;28;20290;-82
2022/02/07 05:29:22;;;;;;;1.42;0.43;;;17.80;57.10;;;;;;5055333;28;20197;-82
2022/02/07 05:31:48;;;;;;;0.93;0.57;;;17.90;57.10;;;;;;5055306;28;20169;-82
2022/02/07 05:34:13;;;;;;;1.08;0.60;;;17.90;56.50;;;;;;5073478;28;20161;-81
2022/02/07 05:36:43;;;;;;;2.05;0.80;;;17.90;56.80;;;;;;5096200;28;20599;-81
2022/02/07 05:39:17;;;;;;;0.63;0.40;;;18.00;56.50;;;;;;5113944;28;20164;-82
2022/02/07 05:41:43;;;;;;;0.65;0.50;;;18.00;56.70;;;;;;5048362;28;20179;-82
2022/02/07 05:44:11;;;;;;;0.70;0.60;;;18.00;56.90;;;;;;5078815;28;20229;-81
2022/02/07 05:46:39;;;;;;;0.90;0.63;;;18.00;56.00;;;;;;5113564;28;20682;-81
2022/02/07 05:49:05;;;;;;;0.80;0.60;;;18.10;56.30;;;;;;5061385;28;20180;-82
2022/02/07 05:51:35;;;;;;;1.33;0.60;;;18.10;56.20;;;;;;5095652;28;20205;-81
2022/02/07 05:54:01;;;;;;;1.08;0.60;;;18.10;55.90;;;;;;5061149;28;20187;-82
2022/02/07 05:56:26;;;;;;;0.88;0.57;;;18.10;55.90;;;;;;5095382;28;20172;-82
2022/02/07 05:58:55;;;;;;;1.02;0.57;;;18.10;56.10;;;;;;5113426;28;20156;-81
2022/02/07 06:01:23;;;;;;;0.55;0.50;;;18.10;55.60;;;;;;5027585;28;20183;-82
2022/02/07 06:03:50;;;;;;;0.88;0.60;;;18.10;55.50;;;;;;5028378;28;20194;-82
2022/02/07 06:06:20;;;;;;;2.40;0.55;;;18.20;55.90;;;;;;5044172;28;20264;-82
2022/02/07 06:08:47;;;;;;;0.77;0.50;;;18.10;55.70;;;;;;5045000;28;20548;-81
2022/02/07 06:11:14;;;;;;;0.80;0.50;;;18.20;55.70;;;;;;5027253;28;20309;-80
2022/02/07 06:13:41;;;;;;;1.55;0.50;;;18.20;55.50;;;;;;5060762;28;20193;-81
2022/02/07 06:16:07;;;;;;;1.30;0.65;;;18.10;55.70;;;;;;5044371;28;20188;-80
2022/02/07 06:18:33;;;;;;;1.38;0.57;;;18.20;55.60;;;;;;5095243;28;20202;-83
2022/02/07 06:21:03;;;;;;;2.42;0.50;;;18.20;54.70;;;;;;5095129;28;20152;-82
2022/02/07 06:23:29;;;;;;;2.42;0.50;;;18.20;54.80;;;;;;5095838;28;20168;-82
2022/02/07 06:25:56;;;;;;;0.60;0.50;;;18.20;55.50;;;;;;5095026;28;20585;-83
2022/02/07 06:28:21;;;;;;;1.10;0.52;;;18.20;55.10;;;;;;5094981;28;20210;-83
2022/02/07 06:30:47;;;;;;;1.35;0.55;;;18.20;55.20;;;;;;5087133;28;20149;-83
2022/02/07 06:33:13;;;;;;;0.85;0.60;;;18.20;55.10;;;;;;5094826;28;20209;-82
2022/02/07 06:35:39;;;;;;;1.08;0.65;;;18.20;55.40;;;;;;5079931;28;20599;-81
2022/02/07 06:38:04;;;;;;;0.90;0.52;;;18.20;55.10;;;;;;5116949;28;20152;-81
2022/02/07 06:40:30;;;;;;;0.88;0.57;;;18.20;54.60;;;;;;5098950;28;20634;-84
2022/02/07 06:42:56;;;;;;;0.88;0.70;;;18.30;54.70;;;;;;5116765;28;20508;-82
2022/02/07 06:45:23;;;;;;;0.93;0.35;;;18.30;54.80;;;;;;5116533;28;20188;-82
2022/02/07 06:47:49;;;;;;;0.95;0.68;;;18.30;54.80;;;;;;5040721;28;20255;-81
2022/02/07 06:50:14;;;;;;;0.90;0.70;;;18.30;54.10;;;;;;5081776;28;20758;-81
2022/02/07 06:52:40;;;;;;;0.80;0.40;;;18.30;54.10;;;;;;5117011;28;20172;-83
2022/02/07 06:55:06;;;;;;;1.42;0.60;;;18.30;54.30;;;;;;5082141;28;20212;-82
2022/02/07 06:57:32;;;;;;;0.85;0.60;;;18.30;55.10;;;;;;5116815;28;20488;-81
2022/02/07 07:00:04;;;;;;;0.43;0.43;;;18.30;54.20;;;;;;5099228;28;20164;-81
2022/02/07 07:02:30;;;;;;;0.70;0.60;;;18.30;54.20;;;;;;5048834;28;20691;-81
2022/02/07 07:05:08;;;;;;;0.57;0.45;;;18.30;54.40;;;;;;5098323;28;20156;-80
2022/02/07 07:07:33;;;;;;;0.88;0.70;;;18.30;54.20;;;;;;5066973;28;20207;-83
2022/02/07 07:09:59;;;;;;;1.02;0.50;;;18.30;54.00;;;;;;5116198;28;20272;-81
2022/02/07 07:12:26;;;;;;;0.60;0.47;;;18.30;54.20;;;;;;5098000;28;20268;-83
2022/02/07 07:15:03;;;;;;;0.80;0.60;;;18.30;53.90;;;;;;5098271;28;20141;-83
2022/02/07 07:17:29;;;;;;;0.60;0.50;;;18.40;53.90;;;;;;5073440;28;20540;-84
2022/02/07 07:20:01;;;;;;;0.55;0.50;;;18.40;53.70;;;;;;5077585;28;20255;-85
2022/02/07 07:22:33;;;;;;;0.55;0.40;;;18.40;53.80;;;;;;5037094;28;20181;-84
2022/02/07 07:25:02;;;;;;;0.43;0.40;;;18.40;54.20;;;;;;4995278;28;20196;-84
2022/02/07 07:27:33;;;;;;;0.95;0.55;;;18.40;54.40;;;;;;4947018;28;20216;-85
2022/02/07 07:30:05;;;;;;;0.75;0.50;;;18.30;54.30;;;;;;4964206;28;20195;-89
2022/02/07 07:32:32;;;;;;;0.60;0.50;;;18.40;53.70;;;;;;4995807;28;20180;-84
2022/02/07 07:34:59;;;;;;;0.57;0.43;;;18.40;53.90;;;;;;4996039;28;20212;-85
2022/02/07 07:37:25;;;;;;;0.93;0.65;;;18.40;53.70;;;;;;4979438;28;20192;-85
2022/02/07 07:39:51;;;;;;;0.55;0.50;;;18.40;54.20;;;;;;4980088;28;20195;-86
2022/02/07 07:42:17;;;;;;;1.77;0.60;;;18.40;53.80;;;;;;4995921;28;20188;-85
2022/02/07 07:44:44;;;;;;;0.60;0.60;;;18.50;53.20;;;;;;4980658;28;20300;-86
2022/02/07 07:47:16;;;;;;;0.80;0.50;;;18.50;53.60;;;;;;4946097;28;20192;-85
2022/02/07 07:50:00;;;;;;;1.00;0.90;;;18.40;53.70;;;;;;4994337;28;20191;-84
2022/02/07 07:52:58;;;;;;;0.93;0.60;;;18.50;52.90;;;;;;4970172;28;20220;-87
2022/02/07 08:03:25;;;;;;;8.60;0.77;;;18.50;53.50;;;;;;4981373;28;20164;-83
2022/02/07 08:06:06;;;;;;;0.55;0.40;;;18.60;53.70;;;;;;4979589;28;20288;-84
2022/02/07 08:08:40;;;;;;;2.47;0.60;;;18.60;53.40;;;;;;4981334;28;20244;-81
2022/02/07 08:11:10;;;;;;;2.47;0.60;;;18.50;54.40;;;;;;4974294;28;20220;-80
2022/02/07 08:13:40;;;;;;;3.00;0.50;;;18.50;54.40;;;;;;4942652;28;20686;-82
2022/02/07 08:16:06;;;;;;;0.40;0.40;;;18.50;54.80;;;;;;4942820;28;20338;-84
2022/02/07 08:18:50;;;;;;;1.98;0.50;;;18.50;54.80;;;;;;4959996;28;20173;-82
2022/02/07 08:21:15;;;;;;;0.65;0.43;;;18.50;53.90;;;;;;4975301;28;20220;-81
2022/02/07 08:23:45;;;;;;;1.67;0.57;;;18.50;54.60;;;;;;4958109;28;20183;-83
2022/02/07 08:26:10;;;;;;;1.83;0.50;;;18.50;54.20;;;;;;4955791;28;20212;-81
2022/02/07 08:28:36;;;;;;;2.95;0.70;;;18.40;54.60;;;;;;4937682;29;20188;-80
2022/02/07 08:31:02;;;;;;;2.47;0.60;;;18.50;54.50;;;;;;4966624;28;20286;-82
2022/02/07 08:33:28;;;;;;;1.08;0.60;;;18.50;54.50;;;;;;4990274;28;20257;-80
2022/02/07 08:35:54;;;;;;;0.82;0.60;;;18.50;54.10;;;;;;5014674;28;20727;-83
2022/02/07 08:38:19;;;;;;;2.20;0.60;;;18.50;54.40;;;;;;5015842;28;20282;-80
2022/02/07 08:40:46;;;;;;;2.65;0.73;;;18.60;53.30;;;;;;5015164;28;20258;-80
2022/02/07 08:43:12;;;;;;;1.27;0.70;;;18.70;53.80;;;;;;5031972;28;20182;-81
2022/02/07 08:45:38;;;;;;;6.32;0.70;;;18.60;53.20;;;;;;4998877;28;20170;-81
2022/02/07 08:48:05;;;;;;;3.45;0.68;;;18.60;53.20;;;;;;5018047;28;20180;-79
2022/02/07 08:50:31;;;;;;;8.77;0.90;;;18.60;53.40;;;;;;5075785;28;20149;-84
2022/02/07 08:52:58;;;;;;;6.00;1.08;;;18.70;53.70;;;;;;5070864;28;20244;-82
2022/02/07 08:55:30;;;;;;;3.47;0.60;;;18.70;53.70;;;;;;5043728;28;20190;-80
2022/02/07 08:58:02;;;;;;;12.73;1.20;;;18.70;52.60;;;;;;5077308;28;20232;-80
2022/02/07 09:00:47;;;;;;;5.50;0.77;;;18.70;54.00;;;;;;5076681;28;20152;-82
2022/02/07 09:11:14;;;;;;;3.65;0.80;;;18.70;53.40;;;;;;5075745;28;20225;-83
2022/02/07 09:13:42;;;;;;;3.30;0.68;;;18.70;53.70;;;;;;5077942;28;20646;-82
2022/02/07 09:16:23;;;;;;;5.57;0.70;;;18.70;52.90;;;;;;5053985;28;20181;-82
2022/02/07 09:18:49;;;;;;;3.03;0.77;;;18.70;53.50;;;;;;4997772;28;20629;-81
2022/02/07 09:21:15;;;;;;;4.95;0.70;;;18.80;53.50;;;;;;4997527;28;20263;-80
2022/02/07 09:24:52;;;;;;;;;;;;;;;;;;;;;
2022/02/07 09:28:02;;;;;;;3.85;0.80;;;18.80;52.90;;;;;;4976355;28;20204;-82
2022/02/07 09:31:14;;;;;;;2.88;0.65;;;18.80;53.40;;;;;;4991647;28;20187;-82
2022/02/07 09:35:17;;;;;;;3.05;0.60;;;18.80;53.20;;;;;;4993118;28;20199;-82
2022/02/07 09:37:20;;;;;;;3.58;1.10;;;18.80;53.00;;;;;;4980884;28;20199;-82
2022/02/07 09:40:52;;;;;;;;;;;;;;;;;;;;;
2022/02/07 09:43:34;;;;;;;3.00;0.63;;;18.80;53.30;;;;;;4891647;29;20179;-82
2022/02/07 09:46:33;;;;;;;2.45;0.70;;;18.80;52.90;;;;;;4914953;29;20224;-83
2022/02/07 09:49:00;;;;;;;2.70;0.90;;;18.90;53.60;;;;;;4950221;28;20193;-82
2022/02/07 09:51:26;;;;;;;6.68;0.73;;;18.80;53.50;;;;;;4936104;29;20182;-80
2022/02/07 09:53:52;;;;;;;7.93;1.50;;;18.90;53.30;;;;;;4935414;29;20182;-81
2022/02/07 09:56:20;;;;;;;4.22;0.77;;;18.90;53.60;;;;;;4944048;29;20676;-81
2022/02/07 09:58:51;;;;;;;2.97;0.73;;;18.90;53.60;;;;;;4951738;29;20550;-80
2022/02/07 10:02:10;;;;;;;7.82;0.90;;;18.90;51.90;;;;;;4893706;29;20203;-81
2022/02/07 10:04:43;;;;;;;2.45;0.70;;;19.00;52.30;;;;;;4895128;29;20610;-80
2022/02/07 10:07:21;;;;;;;7.40;0.73;;;19.00;53.20;;;;;;4894762;29;20211;-82
2022/02/07 10:10:10;;;;;;;;;;;;;;;;;;;;;
2022/02/07 10:12:56;;;;;;;7.68;1.58;;;19.10;53.20;;;;;;4880573;29;20210;-82
2022/02/07 10:15:43;;;;;;;3.85;0.80;;;19.10;53.00;;;;;;4867233;29;20211;-82
2022/02/07 10:18:37;;;;;;;4.35;0.90;;;19.10;53.10;;;;;;4917931;29;20187;-81
2022/02/07 10:22:26;;;;;;;6.25;0.85;;;19.10;53.50;;;;;;4916892;29;20187;-80
2022/02/07 10:38:11;;;;;;;2.83;1.00;;;19.10;53.10;;;;;;4947303;28;20184;-82
2022/02/07 10:40:54;;;;;;;1.67;0.60;;;19.00;53.40;;;;;;4954635;28;20192;-85
2022/02/07 10:43:45;;;;;;;6.13;0.73;;;19.10;53.20;;;;;;5032839;28;20178;-82
2022/02/07 10:46:11;;;;;;;2.08;0.65;;;19.10;53.00;;;;;;5034468;28;20229;-83
2022/02/07 10:48:52;;;;;;;1.38;0.90;;;19.20;53.10;;;;;;5042618;28;20170;-83
2022/02/07 10:51:20;;;;;;;1.63;0.80;;;19.10;53.30;;;;;;5044042;28;20219;-82
2022/02/07 10:53:49;;;;;;;3.00;0.93;;;19.10;53.00;;;;;;5042903;28;20219;-82
2022/02/07 10:56:17;;;;;;;4.95;0.60;;;19.20;52.80;;;;;;5058810;28;20153;-83
2022/02/07 10:58:50;;;;;;;4.53;0.80;;;19.20;52.80;;;;;;5026066;28;20178;-84
2022/02/07 11:01:22;;;;;;;1.05;0.63;;;19.20;52.80;;;;;;5035978;28;20721;-85
2022/02/07 11:03:55;;;;;;;1.75;0.55;;;19.10;52.70;;;;;;5035946;28;20179;-84
2022/02/07 11:06:33;;;;;;;2.20;0.70;;;19.20;52.80;;;;;;5050612;28;20269;-83
2022/02/07 11:09:13;;;;;;;3.03;0.70;;;19.20;52.80;;;;;;5033840;28;20213;-85
2022/02/07 11:12:07;;;;;;;1.60;0.70;;;19.20;52.80;;;;;;4972485;28;20186;-83
2022/02/07 11:17:57;;;;;;;1.88;0.63;;;19.20;52.60;;;;;;5011162;28;20206;-83
2022/02/07 11:20:49;;;;;;;2.63;0.60;;;19.20;52.10;;;;;;5037599;28;20186;-82
2022/02/07 11:23:54;;;;;;;1.95;0.80;;;19.20;52.10;;;;;;5026768;28;20179;-81
2022/02/07 11:26:03;;;;;;;1.27;0.65;;;19.20;52.80;;;;;;5027017;28;20738;-81
2022/02/07 11:28:33;;;;;;;2.60;0.90;;;19.20;52.80;;;;;;5016525;28;20684;-81
2022/02/07 11:31:00;;;;;;;0.88;0.60;;;19.20;52.80;;;;;;5033768;28;20155;-81
2022/02/07 11:34:00;;;;;;;4.05;0.85;;;19.20;52.60;;;;;;5017153;28;20190;-82
2022/02/07 11:36:34;;;;;;;3.35;0.60;;;19.20;52.10;;;;;;5021376;28;20159;-82
2022/02/07 11:39:06;;;;;;;1.98;0.50;;;19.30;52.80;;;;;;5017202;28;20163;-80
2022/02/07 11:42:08;;;;;;;2.67;0.70;;;19.20;53.10;;;;;;5016661;28;20183;-80
2022/02/07 11:45:14;;;;;;;1.23;0.50;;;19.20;53.10;;;;;;5003707;28;20178;-81
2022/02/07 11:47:40;;;;;;;2.00;0.73;;;19.20;52.50;;;;;;5005479;28;20567;-80
2022/02/07 11:50:07;;;;;;;1.35;0.50;;;19.20;52.70;;;;;;5033017;28;20147;-80
2022/02/07 11:52:48;;;;;;;1.77;0.60;;;19.30;52.60;;;;;;5016990;28;20159;-82
2022/02/07 11:55:57;;;;;;;2.30;0.60;;;19.20;52.20;;;;;;4994117;28;20179;-83
2022/02/07 11:58:27;;;;;;;2.38;0.73;;;19.30;52.10;;;;;;5016469;28;20272;-84
2022/02/07 12:00:57;;;;;;;1.40;0.70;;;19.20;52.60;;;;;;5012944;28;20182;-85
2022/02/07 12:03:30;;;;;;;3.00;0.63;;;19.20;53.00;;;;;;5005390;28;20187;-85
2022/02/07 12:06:03;;;;;;;3.72;0.60;;;19.30;51.70;;;;;;4991593;28;20218;-84
2022/02/07 12:08:32;;;;;;;1.95;0.60;;;19.30;50.60;;;;;;4999975;28;20171;-83
2022/02/07 12:11:08;;;;;;;1.63;0.50;;;19.30;51.90;;;;;;5015462;28;20222;-84
2022/02/07 12:13:51;;;;;;;2.10;0.80;;;19.30;51.70;;;;;;5010441;28;20194;-85
2022/02/07 12:16:20;;;;;;;3.20;0.70;;;19.40;51.60;;;;;;5012973;28;20183;-83
2022/02/07 12:18:47;;;;;;;1.92;0.77;;;19.20;51.80;;;;;;4997113;28;20179;-83
2022/02/07 12:21:25;;;;;;;1.35;0.57;;;19.30;51.70;;;;;;5012486;28;20164;-84
2022/02/07 12:23:52;;;;;;;2.15;0.70;;;19.40;51.90;;;;;;4997450;28;20175;-84
2022/02/07 12:26:18;;;;;;;0.93;0.50;;;19.20;52.60;;;;;;4996295;28;20819;-83
2022/02/07 12:28:49;;;;;;;1.27;0.60;;;19.20;52.50;;;;;;4999416;28;20176;-84
2022/02/07 12:31:19;;;;;;;2.72;0.60;;;19.30;52.40;;;;;;4993683;28;20251;-83
2022/02/07 12:34:00;;;;;;;1.75;0.60;;;19.20;52.10;;;;;;5030017;28;20232;-82
2022/02/07 12:36:30;;;;;;;1.13;0.52;;;19.30;51.80;;;;;;5039495;28;20208;-82
2022/02/07 12:38:57;;;;;;;0.95;0.52;;;19.30;52.30;;;;;;5023289;28;20262;-83
2022/02/07 12:41:23;;;;;;;1.13;0.70;;;19.40;52.30;;;;;;5023231;28;20161;-83
2022/02/07 12:43:53;;;;;;;2.85;0.73;;;19.30;52.00;;;;;;5039497;28;20542;-85
2022/02/07 12:46:21;;;;;;;3.30;0.60;;;19.30;51.30;;;;;;4986755;28;20267;-81
2022/02/07 12:49:08;;;;;;;1.92;0.52;;;19.40;52.40;;;;;;5035945;28;20333;-83
2022/02/07 12:51:37;;;;;;;1.48;0.70;;;19.40;52.00;;;;;;5051217;28;20174;-86
2022/02/07 12:54:02;;;;;;;0.57;0.50;;;19.40;52.10;;;;;;5054691;28;20182;-85
2022/02/07 12:56:32;;;;;;;1.85;0.68;;;19.40;52.00;;;;;;5054293;28;20193;-81
2022/02/07 12:58:58;;;;;;;1.13;0.70;;;19.40;51.60;;;;;;5052271;28;20209;-83
2022/02/07 13:01:30;;;;;;;0.63;0.52;;;19.40;51.20;;;;;;5052306;28;20193;-84
2022/02/07 13:03:58;;;;;;;1.02;0.50;;;19.50;51.20;;;;;;5053781;28;20173;-88
2022/02/07 13:06:25;;;;;;;1.10;0.60;;;19.40;51.30;;;;;;5052053;28;20635;-83
2022/02/07 13:08:51;;;;;;;1.58;0.65;;;19.40;51.50;;;;;;5052053;28;20201;-83
2022/02/07 13:11:24;;;;;;;1.98;0.70;;;19.40;51.50;;;;;;5091431;28;20244;-82
2022/02/07 13:13:51;;;;;;;1.85;0.60;;;19.40;51.50;;;;;;5108577;28;20259;-82
2022/02/07 13:16:21;;;;;;;0.98;0.50;;;19.40;50.50;;;;;;5092621;28;20172;-85
2022/02/07 13:18:48;;;;;;;1.15;0.60;;;19.50;50.30;;;;;;5059733;28;20271;-86
2022/02/07 13:21:17;;;;;;;2.30;0.75;;;19.50;51.40;;;;;;5109221;28;20157;-82
2022/02/07 13:23:44;;;;;;;1.23;0.50;;;19.50;50.20;;;;;;5075379;28;20172;-85
2022/02/07 13:26:11;;;;;;;1.85;0.60;;;19.50;50.80;;;;;;5091864;28;20207;-81
2022/02/07 13:28:40;;;;;;;1.02;0.57;;;19.50;51.00;;;;;;5075512;28;20175;-84
2022/02/07 13:31:06;;;;;;;2.08;0.60;;;19.50;50.10;;;;;;5074770;28;20172;-84
2022/02/07 13:33:49;;;;;;;2.38;0.98;;;19.50;51.10;;;;;;5092327;28;20149;-83
2022/02/07 13:36:27;;;;;;;1.15;0.50;;;19.50;50.90;;;;;;5092702;28;20179;-83
2022/02/07 13:39:02;;;;;;;0.75;0.40;;;19.40;51.10;;;;;;5058167;28;20187;-85
2022/02/07 13:41:27;;;;;;;4.03;0.68;;;19.50;50.90;;;;;;5061400;28;20248;-85
2022/02/07 13:43:54;;;;;;;3.72;1.00;;;19.50;50.50;;;;;;5064002;28;20180;-84
2022/02/07 13:46:22;;;;;;;0.65;0.55;;;19.50;51.50;;;;;;5082113;28;20199;-81
2022/02/07 13:48:49;;;;;;;1.95;0.52;;;19.50;51.20;;;;;;5100553;28;20147;-83
2022/02/07 13:51:14;;;;;;;0.93;0.50;;;19.40;51.70;;;;;;5083567;28;20611;-81
2022/02/07 13:53:40;;;;;;;2.42;0.60;;;19.40;50.80;;;;;;5100397;28;20235;-85
2022/02/07 13:56:05;;;;;;;0.85;0.60;;;19.50;50.10;;;;;;5082568;28;20172;-84
2022/02/07 13:58:36;;;;;;;2.28;0.45;;;19.50;50.80;;;;;;5117432;28;20195;-83
2022/02/07 14:01:04;;;;;;;2.13;0.50;;;19.40;51.10;;;;;;5099261;28;20168;-85
2022/02/07 14:03:34;;;;;;;2.95;0.60;;;19.50;50.10;;;;;;5117641;28;20156;-85
2022/02/07 14:06:06;;;;;;;1.23;0.57;;;19.40;50.80;;;;;;5082911;28;20187;-83
2022/02/07 14:08:49;;;;;;;1.83;0.57;;;19.50;49.90;;;;;;5067490;28;20168;-80
2022/02/07 14:11:23;;;;;;;1.30;0.50;;;19.50;51.00;;;;;;5117602;28;20226;-83
2022/02/07 14:13:52;;;;;;;0.70;0.40;;;19.50;50.20;;;;;;5101136;28;20153;-85
2022/02/07 14:16:22;;;;;;;1.17;0.50;;;19.50;49.80;;;;;;5045796;28;20264;-83
2022/02/07 14:18:48;;;;;;;2.13;0.70;;;19.50;50.90;;;;;;5079841;28;20187;-82
2022/02/07 14:21:17;;;;;;;0.93;0.40;;;19.50;50.20;;;;;;5066084;28;20175;-81
2022/02/07 14:23:44;;;;;;;1.38;0.68;;;19.50;49.70;;;;;;5082002;28;20179;-82
2022/02/07 14:26:15;;;;;;;1.17;0.50;;;19.50;50.80;;;;;;5099016;28;20704;-82
2022/02/07 14:28:40;;;;;;;0.98;0.52;;;19.50;50.20;;;;;;5082891;28;20213;-83
2022/02/07 14:31:08;;;;;;;1.13;0.50;;;19.40;51.60;;;;;;5081954;28;20648;-81
2022/02/07 14:33:34;;;;;;;0.75;0.60;;;19.40;50.90;;;;;;5082080;28;20164;-82
2022/02/07 14:36:00;;;;;;;0.82;0.60;;;19.40;50.80;;;;;;5081813;28;20537;-81
2022/02/07 14:38:25;;;;;;;1.02;0.93;;;19.40;51.20;;;;;;5099052;28;20165;-83
2022/02/07 14:40:51;;;;;;;0.52;0.45;;;19.40;50.60;;;;;;5081719;28;20164;-82
2022/02/07 14:43:23;;;;;;;0.40;0.40;;;19.40;50.20;;;;;;5116708;28;20156;-85
2022/02/07 14:46:07;;;;;;;2.35;0.47;;;19.40;50.40;;;;;;5083424;28;20164;-79
2022/02/07 14:48:35;;;;;;;0.38;0.32;;;19.40;50.70;;;;;;5101298;28;20186;-81
2022/02/07 14:51:06;;;;;;;0.80;0.70;;;19.50;50.00;;;;;;5081741;28;20175;-81
2022/02/07 14:53:34;;;;;;;1.35;0.30;;;19.40;51.00;;;;;;5044325;28;20188;-83
2022/02/07 14:56:02;;;;;;;2.13;0.57;;;19.50;49.90;;;;;;5062450;28;20184;-80
2022/02/07 14:58:28;;;;;;;0.45;0.45;;;19.50;50.90;;;;;;5047129;28;20180;-80
2022/02/07 15:00:54;;;;;;;1.45;0.68;;;19.40;50.60;;;;;;5031650;28;20180;-85
2022/02/07 15:03:22;;;;;;;1.00;0.40;;;19.50;50.20;;;;;;5082181;28;20160;-82
2022/02/07 15:05:53;;;;;;;0.85;0.45;;;19.50;49.50;;;;;;5099141;28;20152;-82
2022/02/07 15:08:20;;;;;;;0.88;0.50;;;19.50;50.20;;;;;;5051652;28;20255;-81